createdAt,value
2019-02-24T00:00:03.099Z,1.00
2019-02-24T00:02:35.422Z,1.00
2019-02-24T00:05:06.031Z,1.00
2019-02-24T00:07:36.731Z,0.90
2019-02-24T00:10:07.440Z,0.90
2019-02-24T00:12:38.144Z,0.90
2019-02-24T00:15:08.875Z,0.90
2019-02-24T00:17:39.666Z,0.90
2019-02-24T00:20:11.423Z,0.90
2019-02-24T00:22:42.336Z,0.90
2019-02-24T00:25:12.905Z,0.90
2019-02-24T00:27:43.605Z,0.80
2019-02-24T00:30:14.418Z,0.80
2019-02-24T00:32:45.137Z,0.80
2019-02-24T00:35:15.803Z,0.80
2019-02-24T00:37:47.601Z,0.80
2019-02-24T00:40:18.766Z,0.70
2019-02-24T00:42:49.466Z,0.70
2019-02-24T00:45:20.373Z,0.70
2019-02-24T00:47:50.964Z,0.70
2019-02-24T00:50:22.028Z,0.70
2019-02-24T00:52:52.861Z,0.70
2019-02-24T00:55:23.514Z,0.60
2019-02-24T00:57:54.146Z,0.60
2019-02-24T01:00:24.983Z,0.60
2019-02-24T01:02:55.616Z,0.60
2019-02-24T01:05:26.314Z,0.60
2019-02-24T01:07:57.079Z,0.50
2019-02-24T01:10:28.746Z,0.50
2019-02-24T01:12:59.447Z,0.50
2019-02-24T01:15:30.515Z,0.40
2019-02-24T01:18:01.149Z,0.40
2019-02-24T01:20:31.808Z,0.30
2019-02-24T01:23:02.341Z,0.30
2019-02-24T01:25:32.976Z,0.30
2019-02-24T01:28:04.002Z,0.30
2019-02-24T01:30:34.844Z,0.20
2019-02-24T01:33:05.523Z,0.20
2019-02-24T01:35:36.207Z,0.20
2019-02-24T01:38:06.876Z,0.20
2019-02-24T01:40:37.547Z,0.10
2019-02-24T01:43:08.272Z,0.20
2019-02-24T01:45:38.987Z,0.10
2019-02-24T01:48:10.025Z,0.10
2019-02-24T01:50:40.650Z,0.10
2019-02-24T01:53:11.235Z,0.10
2019-02-24T01:55:42.071Z,0.10
2019-02-24T01:58:12.784Z,0.10
2019-02-24T02:00:43.505Z,0.10
2019-02-24T02:03:14.171Z,0.00
2019-02-24T02:05:44.800Z,0.10
2019-02-24T02:08:15.493Z,0.10
2019-02-24T02:10:46.223Z,0.00
2019-02-24T02:13:16.805Z,0.00
2019-02-24T02:15:47.466Z,0.00
2019-02-24T02:18:18.451Z,0.00
2019-02-24T02:20:49.015Z,0.00
2019-02-24T02:23:19.743Z,0.00
2019-02-24T02:25:50.711Z,0.00
2019-02-24T02:28:21.402Z,0.00
2019-02-24T02:30:51.901Z,0.00
2019-02-24T02:33:22.590Z,0.00
2019-02-24T02:35:53.196Z,0.00
2019-02-24T02:38:23.829Z,0.00
2019-02-24T02:40:54.925Z,0.00
2019-02-24T02:43:25.501Z,0.00
2019-02-24T02:45:56.393Z,0.00
2019-02-24T02:48:27.035Z,0.00
2019-02-24T02:50:57.710Z,0.10
2019-02-24T02:53:28.475Z,0.00
2019-02-24T02:55:59.175Z,0.00
2019-02-24T02:58:29.798Z,0.00
2019-02-24T03:01:00.450Z,0.00
2019-02-24T03:03:31.431Z,0.00
2019-02-24T03:06:19.901Z,0.00
2019-02-24T03:08:53.830Z,0.00
2019-02-24T03:11:24.418Z,0.00
2019-02-24T03:13:55.231Z,0.00
2019-02-24T03:16:29.143Z,0.00
2019-02-24T03:18:59.719Z,0.00
2019-02-24T03:21:30.261Z,0.00
2019-02-24T03:24:01.243Z,0.00
2019-02-24T03:26:31.943Z,0.00
2019-02-24T03:29:04.353Z,0.00
2019-02-24T03:31:35.182Z,0.00
2019-02-24T03:34:05.772Z,0.00
2019-02-24T03:36:37.056Z,0.00
2019-02-24T03:39:07.682Z,-0.10
2019-02-24T03:41:38.319Z,-0.10
2019-02-24T03:44:08.924Z,-0.10
2019-02-24T03:46:39.509Z,-0.10
2019-02-24T03:49:10.162Z,-0.10
2019-02-24T03:51:40.746Z,-0.10
2019-02-24T03:54:11.309Z,-0.10
2019-02-24T03:56:41.970Z,-0.10
2019-02-24T03:59:15.348Z,-0.10
2019-02-24T04:01:45.019Z,-0.20
2019-02-24T04:04:15.851Z,-0.20
2019-02-24T04:06:46.892Z,-0.20
2019-02-24T04:09:17.550Z,-0.20
2019-02-24T04:11:48.168Z,-0.20
2019-02-24T04:14:19.071Z,-0.20
2019-02-24T04:16:50.067Z,-0.30
2019-02-24T04:19:20.973Z,-0.30
2019-02-24T04:21:52.053Z,-0.30
2019-02-24T04:24:22.843Z,-0.30
2019-02-24T04:26:53.784Z,-0.30
2019-02-24T04:29:25.640Z,-0.40
2019-02-24T04:31:56.335Z,-0.40
2019-02-24T04:34:28.109Z,-0.40
2019-02-24T04:36:58.803Z,-0.40
2019-02-24T04:39:29.543Z,-0.40
2019-02-24T04:42:00.274Z,-0.50
2019-02-24T04:44:30.957Z,-0.50
2019-02-24T04:47:01.726Z,-0.50
2019-02-24T04:49:32.810Z,-0.40
2019-02-24T04:52:03.455Z,-0.50
2019-02-24T04:54:34.129Z,-0.50
2019-02-24T04:57:04.849Z,-0.50
2019-02-24T04:59:35.495Z,-0.50
2019-02-24T05:02:06.434Z,-0.50
2019-02-24T05:04:37.035Z,-0.50
2019-02-24T05:07:07.702Z,-0.50
2019-02-24T05:09:38.381Z,-0.50
2019-02-24T05:12:09.097Z,-0.50
2019-02-24T05:14:39.779Z,-0.50
2019-02-24T05:17:10.443Z,-0.50
2019-02-24T05:19:41.102Z,-0.50
2019-02-24T05:22:12.184Z,-0.60
2019-02-24T05:24:43.090Z,-0.60
2019-02-24T05:27:13.669Z,-0.60
2019-02-24T05:29:46.257Z,-0.60
2019-02-24T05:32:16.553Z,-0.60
2019-02-24T05:34:47.281Z,-0.60
2019-02-24T05:37:17.826Z,-0.60
2019-02-24T05:39:48.466Z,-0.60
2019-02-24T05:42:19.018Z,-0.60
2019-02-24T05:44:49.671Z,-0.70
2019-02-24T05:47:20.654Z,-0.70
2019-02-24T05:49:51.303Z,-0.70
2019-02-24T05:52:21.965Z,-0.70
2019-02-24T05:54:52.714Z,-0.70
2019-02-24T05:57:23.651Z,-0.70
2019-02-24T05:59:55.497Z,-0.70
2019-02-24T06:02:26.337Z,-0.70
2019-02-24T06:04:56.979Z,-0.70
2019-02-24T06:07:27.929Z,-0.70
2019-02-24T06:09:58.958Z,-0.70
2019-02-24T06:12:29.673Z,-0.70
2019-02-24T06:15:00.396Z,-0.70
2019-02-24T06:17:31.079Z,-0.60
2019-02-24T06:20:01.828Z,-0.60
2019-02-24T06:22:32.658Z,-0.60
2019-02-24T06:25:03.418Z,-0.50
2019-02-24T06:27:34.296Z,-0.50
2019-02-24T06:30:05.826Z,-0.40
2019-02-24T06:32:36.579Z,-0.40
2019-02-24T06:35:07.485Z,-0.30
2019-02-24T06:37:38.172Z,-0.20
2019-02-24T06:40:08.860Z,0.30
2019-02-24T06:42:39.619Z,0.50
2019-02-24T06:45:10.310Z,0.80
2019-02-24T06:47:40.977Z,1.40
2019-02-24T06:50:11.688Z,2.40
2019-02-24T06:52:42.376Z,3.80
2019-02-24T06:55:13.092Z,4.70
2019-02-24T06:57:43.816Z,5.30
2019-02-24T07:00:14.559Z,5.90
2019-02-24T07:02:45.615Z,6.30
2019-02-24T07:05:16.182Z,6.70
2019-02-24T07:07:46.908Z,7.20
2019-02-24T07:10:17.471Z,8.90
2019-02-24T07:12:48.823Z,11.20
2019-02-24T07:15:19.891Z,13.30
2019-02-24T07:17:50.604Z,14.60
2019-02-24T07:20:21.647Z,15.60
2019-02-24T07:22:52.754Z,17.00
2019-02-24T07:25:23.359Z,18.20
2019-02-24T07:27:55.927Z,18.70
2019-02-24T07:30:26.485Z,19.90
2019-02-24T07:32:57.495Z,21.30
2019-02-24T07:35:28.058Z,22.00
2019-02-24T07:37:58.677Z,22.40
2019-02-24T07:40:29.291Z,22.70
2019-02-24T07:43:00.297Z,23.10
2019-02-24T07:45:30.857Z,23.00
2019-02-24T07:48:01.417Z,22.90
2019-02-24T07:50:32.113Z,22.90
2019-02-24T07:53:02.822Z,23.10
2019-02-24T07:55:33.591Z,22.30
2019-02-24T07:58:04.111Z,21.30
2019-02-24T08:00:43.560Z,20.70
2019-02-24T08:03:14.306Z,20.30
2019-02-24T08:05:44.801Z,20.60
2019-02-24T08:08:16.752Z,22.20
2019-02-24T08:10:47.485Z,23.90
2019-02-24T08:13:18.181Z,24.90
2019-02-24T08:15:48.736Z,25.40
2019-02-24T08:18:19.450Z,26.30
2019-02-24T08:20:50.055Z,26.70
2019-02-24T08:23:20.752Z,26.20
2019-02-24T08:25:51.311Z,25.70
2019-02-24T08:28:22.029Z,26.00
2019-02-24T08:30:53.612Z,25.80
2019-02-24T08:33:24.261Z,25.30
2019-02-24T08:35:54.802Z,26.30
2019-02-24T08:38:27.272Z,27.30
2019-02-24T08:40:58.086Z,27.90
2019-02-24T08:43:28.696Z,28.00
2019-02-24T08:45:59.631Z,27.60
2019-02-24T08:48:30.598Z,27.90
2019-02-24T08:51:02.165Z,28.20
2019-02-24T08:53:32.846Z,28.70
2019-02-24T08:56:03.577Z,29.70
2019-02-24T08:58:34.242Z,30.70
2019-02-24T09:01:04.893Z,31.50
2019-02-24T09:03:35.486Z,32.00
2019-02-24T09:06:06.251Z,32.60
2019-02-24T09:08:36.917Z,32.80
2019-02-24T09:11:07.633Z,32.80
2019-02-24T09:13:38.203Z,33.20
2019-02-24T09:16:08.870Z,33.80
2019-02-24T09:18:39.688Z,34.10
2019-02-24T09:21:10.375Z,33.30
2019-02-24T09:23:42.167Z,30.50
2019-02-24T09:26:12.796Z,28.00
2019-02-24T09:28:43.457Z,26.00
2019-02-24T09:31:14.060Z,24.10
2019-02-24T09:33:44.721Z,22.40
2019-02-24T09:36:15.269Z,21.10
2019-02-24T09:38:46.199Z,20.00
2019-02-24T09:41:16.800Z,19.10
2019-02-24T09:43:47.315Z,18.50
2019-02-24T09:46:18.014Z,17.90
2019-02-24T09:48:48.687Z,17.30
2019-02-24T09:51:19.296Z,16.70
2019-02-24T09:53:50.945Z,16.00
2019-02-24T09:56:21.571Z,15.50
2019-02-24T09:58:52.326Z,15.10
2019-02-24T10:01:22.943Z,14.80
2019-02-24T10:03:53.641Z,14.70
2019-02-24T10:06:24.281Z,14.50
2019-02-24T10:08:54.931Z,14.40
2019-02-24T10:11:25.720Z,14.30
2019-02-24T10:13:56.383Z,14.20
2019-02-24T10:16:27.041Z,14.10
2019-02-24T10:18:58.011Z,13.90
2019-02-24T10:21:28.617Z,13.90
2019-02-24T10:23:59.182Z,13.70
2019-02-24T10:26:29.729Z,13.60
2019-02-24T10:29:00.397Z,13.50
2019-02-24T10:31:31.007Z,13.40
2019-02-24T10:34:01.653Z,13.40
2019-02-24T10:36:32.246Z,14.30
2019-02-24T10:39:03.876Z,16.20
2019-02-24T10:41:36.156Z,18.00
2019-02-24T10:44:06.836Z,19.30
2019-02-24T10:46:37.410Z,20.00
2019-02-24T10:49:08.125Z,20.30
2019-02-24T10:51:38.768Z,20.20
2019-02-24T10:54:09.465Z,19.80
2019-02-24T10:56:40.740Z,19.40
2019-02-24T10:59:11.758Z,19.10
2019-02-24T11:01:43.507Z,18.90
2019-02-24T11:04:26.327Z,19.00
2019-02-24T11:06:57.313Z,19.10
2019-02-24T11:09:29.447Z,19.40
2019-02-24T11:12:00.021Z,19.50
2019-02-24T11:14:30.654Z,19.30
2019-02-24T11:17:01.227Z,18.80
2019-02-24T11:19:31.962Z,18.30
2019-02-24T11:22:03.011Z,17.80
2019-02-24T11:24:33.571Z,17.20
2019-02-24T11:27:04.142Z,16.60
2019-02-24T11:29:34.925Z,16.30
2019-02-24T11:32:05.558Z,16.20
2019-02-24T11:34:36.523Z,16.10
2019-02-24T11:37:07.159Z,16.20
2019-02-24T11:39:37.787Z,16.20
2019-02-24T11:42:08.374Z,16.10
2019-02-24T11:44:39.266Z,16.30
2019-02-24T11:47:09.958Z,16.40
2019-02-24T11:49:40.622Z,16.20
2019-02-24T11:52:11.163Z,16.00
2019-02-24T11:54:41.837Z,15.90
2019-02-24T11:57:12.457Z,15.60
2019-02-24T11:59:43.182Z,15.40
2019-02-24T12:02:13.901Z,15.20
2019-02-24T12:04:44.596Z,15.10
2019-02-24T12:07:15.291Z,15.10
2019-02-24T12:09:46.053Z,14.90
2019-02-24T12:12:17.090Z,14.60
2019-02-24T12:14:47.773Z,14.30
2019-02-24T12:17:18.447Z,14.00
2019-02-24T12:19:49.161Z,13.70
2019-02-24T12:22:20.136Z,13.40
2019-02-24T12:24:50.791Z,13.20
2019-02-24T12:27:21.437Z,13.10
2019-02-24T12:29:52.090Z,13.00
2019-02-24T12:32:22.763Z,13.00
2019-02-24T12:34:54.506Z,12.90
2019-02-24T12:37:25.167Z,12.80
2019-02-24T12:39:55.762Z,12.70
2019-02-24T12:42:26.455Z,12.60
2019-02-24T12:44:57.107Z,12.40
2019-02-24T12:47:27.843Z,12.40
2019-02-24T12:50:03.257Z,12.30
2019-02-24T12:52:31.504Z,12.30
2019-02-24T12:55:02.170Z,12.30
2019-02-24T12:57:32.840Z,12.20
2019-02-24T13:00:03.597Z,12.00
2019-02-24T13:02:34.467Z,11.90
2019-02-24T13:05:05.453Z,11.80
2019-02-24T13:07:36.101Z,11.70
2019-02-24T13:10:08.339Z,11.70
2019-02-24T13:12:39.003Z,11.70
2019-02-24T13:15:09.692Z,11.60
2019-02-24T13:17:40.554Z,11.60
2019-02-24T13:20:11.249Z,11.60
2019-02-24T13:22:42.070Z,11.50
2019-02-24T13:25:13.006Z,11.50
2019-02-24T13:27:43.677Z,11.50
2019-02-24T13:30:15.803Z,11.40
2019-02-24T13:32:46.542Z,11.30
2019-02-24T13:35:17.284Z,11.20
2019-02-24T13:37:47.959Z,11.20
2019-02-24T13:40:18.531Z,11.10
2019-02-24T13:42:49.209Z,11.00
2019-02-24T13:45:19.871Z,11.00
2019-02-24T13:47:50.514Z,10.90
2019-02-24T13:50:21.197Z,10.90
2019-02-24T13:52:51.941Z,10.90
2019-02-24T13:55:22.598Z,10.90
2019-02-24T13:57:53.267Z,11.00
2019-02-24T14:00:23.897Z,11.00
2019-02-24T14:02:54.598Z,11.00
2019-02-24T14:05:25.127Z,11.00
2019-02-24T14:07:55.720Z,11.00
2019-02-24T14:10:26.442Z,11.00
2019-02-24T14:12:58.950Z,11.00
2019-02-24T14:15:29.480Z,11.10
2019-02-24T14:18:00.517Z,11.10
2019-02-24T14:20:31.065Z,11.10
2019-02-24T14:23:02.421Z,11.10
2019-02-24T14:25:33.024Z,11.10
2019-02-24T14:28:03.572Z,11.10
2019-02-24T14:30:34.197Z,11.00
2019-02-24T14:33:05.466Z,11.10
2019-02-24T14:35:36.108Z,11.10
2019-02-24T14:38:06.833Z,11.10
2019-02-24T14:40:37.494Z,11.00
2019-02-24T14:43:08.091Z,11.00
2019-02-24T14:45:38.791Z,11.00
2019-02-24T14:48:09.409Z,11.00
2019-02-24T14:50:40.183Z,11.00
2019-02-24T14:53:10.987Z,11.00
2019-02-24T14:55:41.658Z,10.90
2019-02-24T14:58:12.319Z,10.90
2019-02-24T15:00:42.963Z,10.90
2019-02-24T15:03:14.799Z,10.90
2019-02-24T15:05:45.465Z,10.90
2019-02-24T15:08:16.129Z,10.80
2019-02-24T15:10:48.210Z,10.80
2019-02-24T15:13:31.283Z,10.70
2019-02-24T15:16:01.887Z,10.70
2019-02-24T15:18:32.697Z,10.60
2019-02-24T15:21:03.327Z,10.60
2019-02-24T15:23:33.979Z,10.60
2019-02-24T15:26:04.739Z,10.50
2019-02-24T15:28:35.394Z,10.50
2019-02-24T15:31:06.263Z,10.40
2019-02-24T15:33:36.882Z,10.40
2019-02-24T15:36:07.567Z,10.40
2019-02-24T15:38:38.352Z,10.40
2019-02-24T15:41:09.097Z,10.40
2019-02-24T15:43:39.898Z,10.30
2019-02-24T15:46:10.447Z,10.30
2019-02-24T15:48:41.115Z,10.20
2019-02-24T15:51:11.782Z,10.20
2019-02-24T15:53:42.497Z,10.20
2019-02-24T15:56:13.237Z,10.20
2019-02-24T15:58:44.012Z,10.10
2019-02-24T16:01:16.532Z,10.10
2019-02-24T16:03:47.375Z,10.00
2019-02-24T16:06:18.374Z,10.00
2019-02-24T16:08:49.353Z,9.90
2019-02-24T16:11:20.094Z,9.90
2019-02-24T16:13:50.882Z,9.80
2019-02-24T16:16:21.417Z,9.80
2019-02-24T16:18:52.101Z,9.70
2019-02-24T16:21:22.839Z,9.70
2019-02-24T16:23:53.456Z,9.60
2019-02-24T16:26:24.162Z,9.50
2019-02-24T16:28:54.803Z,9.40
2019-02-24T16:31:25.428Z,9.30
2019-02-24T16:33:56.087Z,9.30
2019-02-24T16:36:26.726Z,9.20
2019-02-24T16:38:58.255Z,9.20
2019-02-24T16:41:28.988Z,9.10
2019-02-24T16:44:00.097Z,9.10
2019-02-24T16:46:30.810Z,9.00
2019-02-24T16:49:05.030Z,8.90
2019-02-24T16:51:35.579Z,8.90
2019-02-24T16:54:06.674Z,8.80
2019-02-24T16:56:37.517Z,8.80
2019-02-24T16:59:08.319Z,8.70
2019-02-24T17:01:39.190Z,8.60
2019-02-24T17:04:10.472Z,8.60
2019-02-24T17:06:41.421Z,8.50
2019-02-24T17:09:12.135Z,8.40
2019-02-24T17:11:42.974Z,8.30
2019-02-24T17:14:13.691Z,8.20
2019-02-24T17:16:44.924Z,8.10
2019-02-24T17:19:15.734Z,8.00
2019-02-24T17:21:46.444Z,8.00
2019-02-24T17:24:17.539Z,7.90
2019-02-24T17:26:51.750Z,7.90
2019-02-24T17:29:22.336Z,7.80
2019-02-24T17:31:52.857Z,7.80
2019-02-24T17:34:23.558Z,7.70
2019-02-24T17:36:54.159Z,7.60
2019-02-24T17:39:24.837Z,7.50
2019-02-24T17:41:55.615Z,7.50
2019-02-24T17:44:26.345Z,7.40
2019-02-24T17:46:56.984Z,7.40
2019-02-24T17:49:27.626Z,7.30
2019-02-24T17:51:58.423Z,7.30
2019-02-24T17:54:29.133Z,7.20
2019-02-24T17:56:59.822Z,7.10
2019-02-24T17:59:30.740Z,7.00
2019-02-24T18:02:01.406Z,7.00
2019-02-24T18:04:32.118Z,6.90
2019-02-24T18:07:05.126Z,6.80
2019-02-24T18:09:37.666Z,6.70
2019-02-24T18:12:08.335Z,6.70
2019-02-24T18:14:40.233Z,6.60
2019-02-24T18:17:11.341Z,6.50
2019-02-24T18:19:42.033Z,6.50
2019-02-24T18:22:12.618Z,6.40
2019-02-24T18:24:43.225Z,6.40
2019-02-24T18:27:14.047Z,6.40
2019-02-24T18:29:44.797Z,6.30
2019-02-24T18:32:15.636Z,6.30
2019-02-24T18:34:46.290Z,6.30
2019-02-24T18:37:16.967Z,6.30
2019-02-24T18:39:48.841Z,6.30
2019-02-24T18:42:19.852Z,6.20
2019-02-24T18:44:51.607Z,6.10
2019-02-24T18:47:22.304Z,6.10
2019-02-24T18:49:52.882Z,6.00
2019-02-24T18:52:23.504Z,6.00
2019-02-24T18:54:54.115Z,5.90
2019-02-24T18:57:25.887Z,5.90
2019-02-24T18:59:56.517Z,5.80
2019-02-24T19:02:27.574Z,5.80
2019-02-24T19:04:58.211Z,5.80
2019-02-24T19:07:28.822Z,5.70
2019-02-24T19:09:59.371Z,5.70
2019-02-24T19:12:30.015Z,5.70
2019-02-24T19:15:00.770Z,5.70
2019-02-24T19:17:31.687Z,5.60
2019-02-24T19:20:02.383Z,5.60
2019-02-24T19:22:33.170Z,5.50
2019-02-24T19:25:03.979Z,5.50
2019-02-24T19:27:34.746Z,5.50
2019-02-24T19:30:06.980Z,5.40
2019-02-24T19:32:39.485Z,5.40
2019-02-24T19:35:10.723Z,5.40
2019-02-24T19:37:41.417Z,5.40
2019-02-24T19:40:13.848Z,5.40
2019-02-24T19:42:44.430Z,5.30
2019-02-24T19:45:16.506Z,5.30
2019-02-24T19:47:47.166Z,5.30
2019-02-24T19:50:18.024Z,5.20
2019-02-24T19:52:48.646Z,5.20
2019-02-24T19:55:19.630Z,5.20
2019-02-24T19:57:50.277Z,5.10
2019-02-24T20:00:21.648Z,5.10
2019-02-24T20:02:52.350Z,5.10
2019-02-24T20:05:23.355Z,5.00
2019-02-24T20:07:54.355Z,4.90
2019-02-24T20:10:25.748Z,4.90
2019-02-24T20:12:57.403Z,4.90
2019-02-24T20:15:29.157Z,4.80
2019-02-24T20:17:59.899Z,4.80
2019-02-24T20:20:31.001Z,4.80
2019-02-24T20:23:01.945Z,4.70
2019-02-24T20:25:32.831Z,4.70
2019-02-24T20:28:03.533Z,4.60
2019-02-24T20:30:34.512Z,4.60
2019-02-24T20:33:05.236Z,4.60
2019-02-24T20:35:35.959Z,4.50
2019-02-24T20:38:06.748Z,4.50
2019-02-24T20:40:37.305Z,4.50
2019-02-24T20:43:08.037Z,4.40
2019-02-24T20:45:38.806Z,4.40
2019-02-24T20:48:09.522Z,4.40
2019-02-24T20:50:40.198Z,4.30
2019-02-24T20:53:10.787Z,4.30
2019-02-24T20:55:41.476Z,4.20
2019-02-24T20:58:12.002Z,4.20
2019-02-24T21:00:43.864Z,4.20
2019-02-24T21:03:14.532Z,4.10
2019-02-24T21:05:45.215Z,4.10
2019-02-24T21:08:15.901Z,4.00
2019-02-24T21:10:46.611Z,4.00
2019-02-24T21:13:17.287Z,3.90
2019-02-24T21:15:47.921Z,3.90
2019-02-24T21:18:18.573Z,3.90
2019-02-24T21:20:49.592Z,3.80
2019-02-24T21:23:20.275Z,3.80
2019-02-24T21:25:50.853Z,3.80
2019-02-24T21:28:21.665Z,3.70
2019-02-24T21:30:52.277Z,3.70
2019-02-24T21:33:22.932Z,3.70
2019-02-24T21:35:54.632Z,3.60
2019-02-24T21:38:25.637Z,3.60
2019-02-24T21:40:56.389Z,3.60
2019-02-24T21:43:27.062Z,3.50
2019-02-24T21:45:57.763Z,3.50
2019-02-24T21:48:28.440Z,3.50
2019-02-24T21:50:59.106Z,3.40
2019-02-24T21:53:29.718Z,3.40
2019-02-24T21:56:00.519Z,3.40
2019-02-24T21:58:31.246Z,3.30
2019-02-24T22:01:02.760Z,3.30
2019-02-24T22:03:33.472Z,3.20
2019-02-24T22:06:04.145Z,3.20
2019-02-24T22:08:34.685Z,3.20
2019-02-24T22:11:05.343Z,3.20
2019-02-24T22:13:35.991Z,3.20
2019-02-24T22:16:07.081Z,3.10
2019-02-24T22:18:38.607Z,3.10
2019-02-24T22:21:09.297Z,3.10
2019-02-24T22:23:40.006Z,3.00
2019-02-24T22:26:10.858Z,3.00
2019-02-24T22:28:41.422Z,3.00
2019-02-24T22:31:12.060Z,3.00
2019-02-24T22:33:42.601Z,3.00
2019-02-24T22:36:13.150Z,2.90
2019-02-24T22:38:44.086Z,2.90
2019-02-24T22:41:14.707Z,2.90
2019-02-24T22:43:45.311Z,2.80
2019-02-24T22:46:17.731Z,2.80
2019-02-24T22:48:48.292Z,2.80
2019-02-24T22:51:19.975Z,2.80
2019-02-24T22:53:50.575Z,2.70
2019-02-24T22:56:21.312Z,2.70
2019-02-24T22:58:51.870Z,2.70
2019-02-24T23:01:41.001Z,2.70
2019-02-24T23:04:13.530Z,2.60
2019-02-24T23:06:44.268Z,2.60
2019-02-24T23:09:18.258Z,2.60
2019-02-24T23:11:49.023Z,2.60
2019-02-24T23:14:21.223Z,2.60
2019-02-24T23:16:51.768Z,2.60
2019-02-24T23:19:22.468Z,2.50
2019-02-24T23:22:13.432Z,2.50
2019-02-24T23:24:44.091Z,2.50
2019-02-24T23:27:15.159Z,2.50
2019-02-24T23:29:45.705Z,2.50
2019-02-24T23:32:16.277Z,2.50
2019-02-24T23:34:46.914Z,2.50
2019-02-24T23:37:17.643Z,2.50
2019-02-24T23:39:48.283Z,2.50
2019-02-24T23:42:18.955Z,2.40
2019-02-24T23:44:49.631Z,2.40
2019-02-24T23:47:20.281Z,2.40
2019-02-24T23:49:50.919Z,2.30
2019-02-24T23:52:21.605Z,2.30
2019-02-24T23:54:52.329Z,2.30
2019-02-24T23:57:23.019Z,2.30
2019-02-24T23:59:54.001Z,2.30
